sensor_id;sensor_type;location;lat;lon;timestamp;temperature;humidity
59977;DHT22;45837;51.076;3.578;2022-12-29T00:01:17;20.50;59.10
59977;DHT22;45837;51.076;3.578;2022-12-29T00:03:45;20.60;59.70
59977;DHT22;45837;51.076;3.578;2022-12-29T00:06:10;20.50;59.00
59977;DHT22;45837;51.076;3.578;2022-12-29T00:08:36;20.50;59.00
59977;DHT22;45837;51.076;3.578;2022-12-29T00:11:09;20.50;58.90
59977;DHT22;45837;51.076;3.578;2022-12-29T00:13:35;20.50;58.80
59977;DHT22;45837;51.076;3.578;2022-12-29T00:16:19;20.50;58.80
59977;DHT22;45837;51.076;3.578;2022-12-29T00:18:45;20.50;58.80
59977;DHT22;45837;51.076;3.578;2022-12-29T00:21:14;20.50;58.80
59977;DHT22;45837;51.076;3.578;2022-12-29T00:23:59;20.40;58.60
59977;DHT22;45837;51.076;3.578;2022-12-29T00:26:43;20.40;58.70
59977;DHT22;45837;51.076;3.578;2022-12-29T00:29:27;20.40;58.70
59977;DHT22;45837;51.076;3.578;2022-12-29T00:32:12;20.40;58.60
59977;DHT22;45837;51.076;3.578;2022-12-29T00:34:56;20.40;58.50
59977;DHT22;45837;51.076;3.578;2022-12-29T00:37:37;20.40;58.40
59977;DHT22;45837;51.076;3.578;2022-12-29T00:40:23;20.40;58.40
59977;DHT22;45837;51.076;3.578;2022-12-29T00:43:07;20.40;58.30
59977;DHT22;45837;51.076;3.578;2022-12-29T00:45:51;20.40;58.30
59977;DHT22;45837;51.076;3.578;2022-12-29T00:48:17;20.30;58.30
59977;DHT22;45837;51.076;3.578;2022-12-29T00:51:06;20.30;58.10
59977;DHT22;45837;51.076;3.578;2022-12-29T00:53:32;20.30;58.10
59977;DHT22;45837;51.076;3.578;2022-12-29T00:55:58;20.30;58.00
59977;DHT22;45837;51.076;3.578;2022-12-29T00:58:23;20.30;58.10
59977;DHT22;45837;51.076;3.578;2022-12-29T01:00:51;20.30;58.00
59977;DHT22;45837;51.076;3.578;2022-12-29T01:03:17;20.30;58.00
59977;DHT22;45837;51.076;3.578;2022-12-29T01:05:43;20.30;58.00
59977;DHT22;45837;51.076;3.578;2022-12-29T01:08:08;20.30;58.00
59977;DHT22;45837;51.076;3.578;2022-12-29T01:10:34;20.20;57.90
59977;DHT22;45837;51.076;3.578;2022-12-29T01:13:00;20.20;57.90
59977;DHT22;45837;51.076;3.578;2022-12-29T01:15:25;20.20;57.90
59977;DHT22;45837;51.076;3.578;2022-12-29T01:17:51;20.20;57.90
59977;DHT22;45837;51.076;3.578;2022-12-29T01:20:17;20.30;57.90
59977;DHT22;45837;51.076;3.578;2022-12-29T01:22:43;20.20;57.80
59977;DHT22;45837;51.076;3.578;2022-12-29T01:25:09;20.20;57.90
59977;DHT22;45837;51.076;3.578;2022-12-29T01:27:37;20.20;58.40
59977;DHT22;45837;51.076;3.578;2022-12-29T01:30:03;20.20;57.90
59977;DHT22;45837;51.076;3.578;2022-12-29T01:32:30;20.20;57.80
59977;DHT22;45837;51.076;3.578;2022-12-29T01:34:57;20.20;58.00
59977;DHT22;45837;51.076;3.578;2022-12-29T01:37:23;20.20;57.90
59977;DHT22;45837;51.076;3.578;2022-12-29T01:39:49;20.10;57.80
59977;DHT22;45837;51.076;3.578;2022-12-29T01:42:16;20.20;57.80
59977;DHT22;45837;51.076;3.578;2022-12-29T01:44:50;20.10;57.80
59977;DHT22;45837;51.076;3.578;2022-12-29T01:47:35;20.10;57.70
59977;DHT22;45837;51.076;3.578;2022-12-29T01:50:04;20.10;57.80
59977;DHT22;45837;51.076;3.578;2022-12-29T01:52:31;20.20;57.80
59977;DHT22;45837;51.076;3.578;2022-12-29T01:54:58;20.10;57.80
59977;DHT22;45837;51.076;3.578;2022-12-29T01:57:26;20.10;57.80
59977;DHT22;45837;51.076;3.578;2022-12-29T01:59:56;20.10;57.80
59977;DHT22;45837;51.076;3.578;2022-12-29T02:02:23;20.10;57.70
59977;DHT22;45837;51.076;3.578;2022-12-29T02:04:50;20.10;57.80
59977;DHT22;45837;51.076;3.578;2022-12-29T02:07:18;20.10;58.30
59977;DHT22;45837;51.076;3.578;2022-12-29T02:09:46;20.00;57.70
59977;DHT22;45837;51.076;3.578;2022-12-29T02:12:12;20.00;57.70
59977;DHT22;45837;51.076;3.578;2022-12-29T02:14:37;20.10;57.70
59977;DHT22;45837;51.076;3.578;2022-12-29T02:36:01;20.00;57.50
59977;DHT22;45837;51.076;3.578;2022-12-29T02:40:59;20.00;57.70
59977;DHT22;45837;51.076;3.578;2022-12-29T02:43:37;19.90;57.50
59977;DHT22;45837;51.076;3.578;2022-12-29T02:46:08;19.90;57.10
59977;DHT22;45837;51.076;3.578;2022-12-29T02:48:46;19.90;56.80
59977;DHT22;45837;51.076;3.578;2022-12-29T02:51:26;19.90;56.40
59977;DHT22;45837;51.076;3.578;2022-12-29T02:53:54;19.90;56.30
59977;DHT22;45837;51.076;3.578;2022-12-29T02:56:41;19.80;56.30
59977;DHT22;45837;51.076;3.578;2022-12-29T02:59:06;19.80;56.60
59977;DHT22;45837;51.076;3.578;2022-12-29T03:04:15;19.80;56.40
59977;DHT22;45837;51.076;3.578;2022-12-29T03:06:52;19.80;56.40
59977;DHT22;45837;51.076;3.578;2022-12-29T03:10:01;19.70;56.40
59977;DHT22;45837;51.076;3.578;2022-12-29T03:14:37;19.70;56.50
59977;DHT22;45837;51.076;3.578;2022-12-29T03:17:28;19.70;56.50
59977;DHT22;45837;51.076;3.578;2022-12-29T03:19:58;19.70;56.60
59977;DHT22;45837;51.076;3.578;2022-12-29T03:22:28;19.70;56.50
59977;DHT22;45837;51.076;3.578;2022-12-29T03:27:44;19.70;56.40
59977;DHT22;45837;51.076;3.578;2022-12-29T03:30:12;19.60;56.20
59977;DHT22;45837;51.076;3.578;2022-12-29T03:32:41;19.60;56.50
59977;DHT22;45837;51.076;3.578;2022-12-29T03:35:08;19.70;56.30
59977;DHT22;45837;51.076;3.578;2022-12-29T03:37:36;19.60;56.20
59977;DHT22;45837;51.076;3.578;2022-12-29T03:40:03;19.60;55.90
59977;DHT22;45837;51.076;3.578;2022-12-29T03:42:30;19.60;55.80
59977;DHT22;45837;51.076;3.578;2022-12-29T03:44:57;19.60;56.00
59977;DHT22;45837;51.076;3.578;2022-12-29T03:47:23;19.60;56.10
59977;DHT22;45837;51.076;3.578;2022-12-29T03:49:50;19.60;55.90
59977;DHT22;45837;51.076;3.578;2022-12-29T03:52:16;19.60;55.90
59977;DHT22;45837;51.076;3.578;2022-12-29T03:54:43;19.60;55.70
59977;DHT22;45837;51.076;3.578;2022-12-29T03:57:10;19.50;55.80
59977;DHT22;45837;51.076;3.578;2022-12-29T03:59:56;19.50;55.70
59977;DHT22;45837;51.076;3.578;2022-12-29T04:02:22;19.50;55.60
59977;DHT22;45837;51.076;3.578;2022-12-29T04:04:49;19.50;55.50
59977;DHT22;45837;51.076;3.578;2022-12-29T04:07:15;19.50;55.30
59977;DHT22;45837;51.076;3.578;2022-12-29T04:09:41;19.50;55.50
59977;DHT22;45837;51.076;3.578;2022-12-29T04:12:10;19.50;55.60
59977;DHT22;45837;51.076;3.578;2022-12-29T04:14:36;19.50;55.70
59977;DHT22;45837;51.076;3.578;2022-12-29T04:17:02;19.50;55.80
59977;DHT22;45837;51.076;3.578;2022-12-29T04:19:28;19.50;55.70
59977;DHT22;45837;51.076;3.578;2022-12-29T04:21:54;19.40;55.60
59977;DHT22;45837;51.076;3.578;2022-12-29T04:24:20;19.50;55.50
59977;DHT22;45837;51.076;3.578;2022-12-29T04:26:48;19.40;55.50
59977;DHT22;45837;51.076;3.578;2022-12-29T04:29:49;19.40;55.40
59977;DHT22;45837;51.076;3.578;2022-12-29T04:32:33;19.40;55.30
59977;DHT22;45837;51.076;3.578;2022-12-29T04:34:59;19.40;55.50
59977;DHT22;45837;51.076;3.578;2022-12-29T04:37:27;19.40;55.50
59977;DHT22;45837;51.076;3.578;2022-12-29T04:39:54;19.40;55.60
59977;DHT22;45837;51.076;3.578;2022-12-29T04:42:20;19.40;55.50
59977;DHT22;45837;51.076;3.578;2022-12-29T04:44:45;19.40;55.50
59977;DHT22;45837;51.076;3.578;2022-12-29T04:47:17;19.40;55.40
59977;DHT22;45837;51.076;3.578;2022-12-29T04:50:15;19.40;55.30
59977;DHT22;45837;51.076;3.578;2022-12-29T04:52:52;19.40;55.00
59977;DHT22;45837;51.076;3.578;2022-12-29T04:55:18;19.40;55.00
59977;DHT22;45837;51.076;3.578;2022-12-29T04:57:44;19.30;55.00
59977;DHT22;45837;51.076;3.578;2022-12-29T05:00:15;19.30;54.70
59977;DHT22;45837;51.076;3.578;2022-12-29T05:02:41;19.30;54.70
59977;DHT22;45837;51.076;3.578;2022-12-29T05:05:07;19.30;54.80
59977;DHT22;45837;51.076;3.578;2022-12-29T05:07:37;19.30;55.00
59977;DHT22;45837;51.076;3.578;2022-12-29T05:10:04;19.30;54.90
59977;DHT22;45837;51.076;3.578;2022-12-29T05:12:31;19.20;54.80
59977;DHT22;45837;51.076;3.578;2022-12-29T05:14:59;18.80;54.70
59977;DHT22;45837;51.076;3.578;2022-12-29T05:17:25;19.30;55.20
59977;DHT22;45837;51.076;3.578;2022-12-29T05:19:51;19.30;55.10
59977;DHT22;45837;51.076;3.578;2022-12-29T05:22:18;19.20;55.00
59977;DHT22;45837;51.076;3.578;2022-12-29T05:24:44;19.30;54.80
59977;DHT22;45837;51.076;3.578;2022-12-29T05:27:10;19.20;54.90
59977;DHT22;45837;51.076;3.578;2022-12-29T05:29:59;19.20;54.90
59977;DHT22;45837;51.076;3.578;2022-12-29T05:32:24;19.20;54.90
59977;DHT22;45837;51.076;3.578;2022-12-29T05:34:52;19.20;54.90
59977;DHT22;45837;51.076;3.578;2022-12-29T05:37:18;19.20;54.90
59977;DHT22;45837;51.076;3.578;2022-12-29T05:39:43;19.20;55.00
59977;DHT22;45837;51.076;3.578;2022-12-29T05:42:09;19.20;55.40
59977;DHT22;45837;51.076;3.578;2022-12-29T05:44:50;19.20;54.90
59977;DHT22;45837;51.076;3.578;2022-12-29T05:47:54;19.20;54.90
59977;DHT22;45837;51.076;3.578;2022-12-29T05:50:35;19.10;54.80
59977;DHT22;45837;51.076;3.578;2022-12-29T05:53:13;19.20;54.90
59977;DHT22;45837;51.076;3.578;2022-12-29T05:55:41;19.20;54.70
59977;DHT22;45837;51.076;3.578;2022-12-29T05:58:08;19.10;54.30
59977;DHT22;45837;51.076;3.578;2022-12-29T06:00:34;19.10;54.30
59977;DHT22;45837;51.076;3.578;2022-12-29T06:03:00;19.10;54.40
59977;DHT22;45837;51.076;3.578;2022-12-29T06:05:26;19.10;54.40
59977;DHT22;45837;51.076;3.578;2022-12-29T06:07:52;19.10;54.40
59977;DHT22;45837;51.076;3.578;2022-12-29T06:10:18;19.10;54.40
59977;DHT22;45837;51.076;3.578;2022-12-29T06:12:49;19.10;54.30
59977;DHT22;45837;51.076;3.578;2022-12-29T06:15:16;19.10;54.20
59977;DHT22;45837;51.076;3.578;2022-12-29T06:17:42;19.10;54.10
59977;DHT22;45837;51.076;3.578;2022-12-29T06:20:09;19.10;54.10
59977;DHT22;45837;51.076;3.578;2022-12-29T06:22:36;19.00;53.90
59977;DHT22;45837;51.076;3.578;2022-12-29T06:25:02;19.10;54.00
59977;DHT22;45837;51.076;3.578;2022-12-29T06:27:29;19.00;54.30
59977;DHT22;45837;51.076;3.578;2022-12-29T06:29:54;19.10;54.40
59977;DHT22;45837;51.076;3.578;2022-12-29T06:32:20;19.10;54.30
59977;DHT22;45837;51.076;3.578;2022-12-29T06:34:50;19.00;54.20
59977;DHT22;45837;51.076;3.578;2022-12-29T06:37:16;19.00;54.00
59977;DHT22;45837;51.076;3.578;2022-12-29T06:39:42;19.00;54.00
59977;DHT22;45837;51.076;3.578;2022-12-29T06:42:11;19.30;53.90
59977;DHT22;45837;51.076;3.578;2022-12-29T06:45:09;19.00;53.70
59977;DHT22;45837;51.076;3.578;2022-12-29T06:47:35;18.90;53.70
59977;DHT22;45837;51.076;3.578;2022-12-29T06:50:01;18.90;54.00
59977;DHT22;45837;51.076;3.578;2022-12-29T06:52:27;19.00;54.00
59977;DHT22;45837;51.076;3.578;2022-12-29T06:54:54;19.00;54.20
59977;DHT22;45837;51.076;3.578;2022-12-29T06:57:20;18.90;54.00
59977;DHT22;45837;51.076;3.578;2022-12-29T06:59:46;18.90;54.00
59977;DHT22;45837;51.076;3.578;2022-12-29T07:02:12;18.90;54.30
59977;DHT22;45837;51.076;3.578;2022-12-29T07:04:43;18.80;54.20
59977;DHT22;45837;51.076;3.578;2022-12-29T07:07:09;18.90;54.50
59977;DHT22;45837;51.076;3.578;2022-12-29T07:09:35;19.10;54.80
59977;DHT22;45837;51.076;3.578;2022-12-29T07:12:01;19.00;55.30
59977;DHT22;45837;51.076;3.578;2022-12-29T07:14:27;18.90;55.40
59977;DHT22;45837;51.076;3.578;2022-12-29T07:16:53;18.90;55.90
59977;DHT22;45837;51.076;3.578;2022-12-29T07:19:18;18.90;56.10
59977;DHT22;45837;51.076;3.578;2022-12-29T07:21:44;19.00;56.80
59977;DHT22;45837;51.076;3.578;2022-12-29T07:24:10;19.00;56.90
59977;DHT22;45837;51.076;3.578;2022-12-29T07:26:36;19.10;57.20
59977;DHT22;45837;51.076;3.578;2022-12-29T07:29:02;19.20;57.30
59977;DHT22;45837;51.076;3.578;2022-12-29T07:31:28;19.30;57.60
59977;DHT22;45837;51.076;3.578;2022-12-29T07:33:54;18.40;57.90
59977;DHT22;45837;51.076;3.578;2022-12-29T07:36:20;19.30;58.50
59977;DHT22;45837;51.076;3.578;2022-12-29T07:38:46;18.70;58.20
59977;DHT22;45837;51.076;3.578;2022-12-29T07:41:12;19.40;58.50
59977;DHT22;45837;51.076;3.578;2022-12-29T07:43:38;19.40;58.40
59977;DHT22;45837;51.076;3.578;2022-12-29T07:46:22;19.40;58.50
59977;DHT22;45837;51.076;3.578;2022-12-29T07:48:48;19.50;58.50
59977;DHT22;45837;51.076;3.578;2022-12-29T07:51:14;19.60;58.60
59977;DHT22;45837;51.076;3.578;2022-12-29T07:53:39;19.60;58.50
59977;DHT22;45837;51.076;3.578;2022-12-29T07:56:05;19.70;58.60
59977;DHT22;45837;51.076;3.578;2022-12-29T07:58:31;19.70;58.50
59977;DHT22;45837;51.076;3.578;2022-12-29T08:00:57;19.80;58.50
59977;DHT22;45837;51.076;3.578;2022-12-29T08:03:23;19.90;58.60
59977;DHT22;45837;51.076;3.578;2022-12-29T08:05:50;20.00;58.50
59977;DHT22;45837;51.076;3.578;2022-12-29T08:08:16;20.00;58.20
59977;DHT22;45837;51.076;3.578;2022-12-29T08:10:41;20.10;57.80
59977;DHT22;45837;51.076;3.578;2022-12-29T08:13:08;19.90;58.20
59977;DHT22;45837;51.076;3.578;2022-12-29T08:15:34;20.20;57.60
59977;DHT22;45837;51.076;3.578;2022-12-29T08:17:59;20.30;57.70
59977;DHT22;45837;51.076;3.578;2022-12-29T08:20:25;20.30;57.60
59977;DHT22;45837;51.076;3.578;2022-12-29T08:22:51;20.40;57.70
59977;DHT22;45837;51.076;3.578;2022-12-29T08:25:17;20.50;57.50
59977;DHT22;45837;51.076;3.578;2022-12-29T08:27:44;20.50;57.50
59977;DHT22;45837;51.076;3.578;2022-12-29T08:30:10;20.60;57.80
59977;DHT22;45837;51.076;3.578;2022-12-29T08:32:36;20.60;57.70
59977;DHT22;45837;51.076;3.578;2022-12-29T08:35:02;20.70;58.40
59977;DHT22;45837;51.076;3.578;2022-12-29T08:37:28;20.80;58.60
59977;DHT22;45837;51.076;3.578;2022-12-29T08:39:54;20.70;59.20
59977;DHT22;45837;51.076;3.578;2022-12-29T08:42:20;20.70;59.40
59977;DHT22;45837;51.076;3.578;2022-12-29T08:44:46;20.70;59.70
59977;DHT22;45837;51.076;3.578;2022-12-29T08:47:11;20.70;60.00
59977;DHT22;45837;51.076;3.578;2022-12-29T08:49:37;20.80;60.10
59977;DHT22;45837;51.076;3.578;2022-12-29T08:52:03;20.80;60.20
59977;DHT22;45837;51.076;3.578;2022-12-29T08:54:29;20.80;60.20
59977;DHT22;45837;51.076;3.578;2022-12-29T08:56:55;20.90;60.40
59977;DHT22;45837;51.076;3.578;2022-12-29T08:59:25;20.90;60.20
59977;DHT22;45837;51.076;3.578;2022-12-29T09:01:51;20.90;60.00
59977;DHT22;45837;51.076;3.578;2022-12-29T09:04:17;20.90;59.90
59977;DHT22;45837;51.076;3.578;2022-12-29T09:06:44;20.90;59.80
59977;DHT22;45837;51.076;3.578;2022-12-29T09:09:10;20.90;59.80
59977;DHT22;45837;51.076;3.578;2022-12-29T09:11:36;20.90;60.00
59977;DHT22;45837;51.076;3.578;2022-12-29T09:14:02;20.90;60.00
59977;DHT22;45837;51.076;3.578;2022-12-29T09:16:28;21.00;59.70
59977;DHT22;45837;51.076;3.578;2022-12-29T09:18:54;21.00;59.70
59977;DHT22;45837;51.076;3.578;2022-12-29T09:21:20;21.00;59.80
59977;DHT22;45837;51.076;3.578;2022-12-29T09:23:45;21.00;59.80
59977;DHT22;45837;51.076;3.578;2022-12-29T09:26:11;21.00;60.00
59977;DHT22;45837;51.076;3.578;2022-12-29T09:28:37;21.00;59.70
59977;DHT22;45837;51.076;3.578;2022-12-29T09:31:03;21.00;59.70
59977;DHT22;45837;51.076;3.578;2022-12-29T09:33:29;21.00;59.50
59977;DHT22;45837;51.076;3.578;2022-12-29T09:35:56;21.10;59.40
59977;DHT22;45837;51.076;3.578;2022-12-29T09:38:22;21.10;59.30
59977;DHT22;45837;51.076;3.578;2022-12-29T09:40:52;21.10;59.30
59977;DHT22;45837;51.076;3.578;2022-12-29T09:48:35;21.10;59.10
59977;DHT22;45837;51.076;3.578;2022-12-29T09:51:03;21.10;59.10
59977;DHT22;45837;51.076;3.578;2022-12-29T09:53:38;21.10;59.20
59977;DHT22;45837;51.076;3.578;2022-12-29T09:56:04;21.10;59.10
59977;DHT22;45837;51.076;3.578;2022-12-29T10:01:01;21.10;58.80
59977;DHT22;45837;51.076;3.578;2022-12-29T10:03:32;21.10;58.30
59977;DHT22;45837;51.076;3.578;2022-12-29T10:06:11;21.10;57.90
59977;DHT22;45837;51.076;3.578;2022-12-29T10:08:44;20.40;57.10
59977;DHT22;45837;51.076;3.578;2022-12-29T10:22:00;20.90;55.60
59977;DHT22;45837;51.076;3.578;2022-12-29T10:24:28;21.00;55.40
59977;DHT22;45837;51.076;3.578;2022-12-29T10:26:55;21.00;55.20
59977;DHT22;45837;51.076;3.578;2022-12-29T10:29:24;21.00;54.80
59977;DHT22;45837;51.076;3.578;2022-12-29T10:31:59;20.90;54.60
59977;DHT22;45837;51.076;3.578;2022-12-29T10:34:26;20.90;54.30
59977;DHT22;45837;51.076;3.578;2022-12-29T10:37:09;20.90;54.00
59977;DHT22;45837;51.076;3.578;2022-12-29T10:39:38;20.10;53.40
59977;DHT22;45837;51.076;3.578;2022-12-29T10:42:11;20.80;53.90
59977;DHT22;45837;51.076;3.578;2022-12-29T10:44:39;20.80;53.30
59977;DHT22;45837;51.076;3.578;2022-12-29T10:47:09;20.70;53.10
59977;DHT22;45837;51.076;3.578;2022-12-29T10:49:39;20.60;52.90
59977;DHT22;45837;51.076;3.578;2022-12-29T10:52:06;20.60;52.90
59977;DHT22;45837;51.076;3.578;2022-12-29T10:54:54;20.60;52.50
59977;DHT22;45837;51.076;3.578;2022-12-29T10:59:44;20.50;52.30
59977;DHT22;45837;51.076;3.578;2022-12-29T11:02:15;20.50;52.10
59977;DHT22;45837;51.076;3.578;2022-12-29T11:04:59;20.40;51.90
59977;DHT22;45837;51.076;3.578;2022-12-29T11:07:27;20.40;51.70
59977;DHT22;45837;51.076;3.578;2022-12-29T11:09:56;20.40;51.70
59977;DHT22;45837;51.076;3.578;2022-12-29T11:12:40;20.10;51.50
59977;DHT22;45837;51.076;3.578;2022-12-29T11:17:48;20.30;51.20
59977;DHT22;45837;51.076;3.578;2022-12-29T11:20:27;20.30;51.10
59977;DHT22;45837;51.076;3.578;2022-12-29T11:22:54;20.10;50.70
59977;DHT22;45837;51.076;3.578;2022-12-29T11:25:19;20.70;51.80
59977;DHT22;45837;51.076;3.578;2022-12-29T11:27:58;19.60;51.60
59977;DHT22;45837;51.076;3.578;2022-12-29T11:30:25;20.20;52.00
59977;DHT22;45837;51.076;3.578;2022-12-29T11:32:52;20.20;52.70
59977;DHT22;45837;51.076;3.578;2022-12-29T11:35:40;20.20;53.40
59977;DHT22;45837;51.076;3.578;2022-12-29T11:38:06;20.80;54.10
59977;DHT22;45837;51.076;3.578;2022-12-29T11:40:41;20.30;54.60
59977;DHT22;45837;51.076;3.578;2022-12-29T11:43:11;20.30;55.10
59977;DHT22;45837;51.076;3.578;2022-12-29T11:45:44;20.30;55.30
59977;DHT22;45837;51.076;3.578;2022-12-29T11:48:18;20.30;55.70
59977;DHT22;45837;51.076;3.578;2022-12-29T11:50:54;20.40;55.90
59977;DHT22;45837;51.076;3.578;2022-12-29T11:55:57;20.50;56.50
59977;DHT22;45837;51.076;3.578;2022-12-29T11:58:30;20.50;56.30
59977;DHT22;45837;51.076;3.578;2022-12-29T12:01:02;20.60;56.50
59977;DHT22;45837;51.076;3.578;2022-12-29T12:03:30;21.10;56.90
59977;DHT22;45837;51.076;3.578;2022-12-29T12:05:57;20.60;56.80
59977;DHT22;45837;51.076;3.578;2022-12-29T12:08:33;20.70;56.80
59977;DHT22;45837;51.076;3.578;2022-12-29T12:11:08;20.80;56.60
59977;DHT22;45837;51.076;3.578;2022-12-29T12:13:53;20.80;56.70
59977;DHT22;45837;51.076;3.578;2022-12-29T12:16:22;20.80;56.80
59977;DHT22;45837;51.076;3.578;2022-12-29T12:18:55;20.90;56.80
59977;DHT22;45837;51.076;3.578;2022-12-29T12:29:22;20.90;58.10
59977;DHT22;45837;51.076;3.578;2022-12-29T12:34:37;21.00;58.90
59977;DHT22;45837;51.076;3.578;2022-12-29T12:39:45;21.10;58.60
59977;DHT22;45837;51.076;3.578;2022-12-29T12:50:06;21.10;58.80
59977;DHT22;45837;51.076;3.578;2022-12-29T12:58:21;21.20;58.50
59977;DHT22;45837;51.076;3.578;2022-12-29T13:00:40;21.10;58.40
59977;DHT22;45837;51.076;3.578;2022-12-29T13:03:13;21.10;58.60
59977;DHT22;45837;51.076;3.578;2022-12-29T13:29:06;21.10;56.70
59977;DHT22;45837;51.076;3.578;2022-12-29T13:31:33;21.10;56.60
59977;DHT22;45837;51.076;3.578;2022-12-29T13:34:16;21.20;56.60
59977;DHT22;45837;51.076;3.578;2022-12-29T13:36:45;21.20;56.60
59977;DHT22;45837;51.076;3.578;2022-12-29T13:39:22;21.20;56.70
59977;DHT22;45837;51.076;3.578;2022-12-29T13:41:54;21.20;56.70
59977;DHT22;45837;51.076;3.578;2022-12-29T13:44:21;21.20;55.10
59977;DHT22;45837;51.076;3.578;2022-12-29T13:46:48;21.20;55.60
59977;DHT22;45837;51.076;3.578;2022-12-29T13:49:21;21.60;56.10
59977;DHT22;45837;51.076;3.578;2022-12-29T13:51:53;21.20;56.00
59977;DHT22;45837;51.076;3.578;2022-12-29T13:54:24;21.20;56.20
59977;DHT22;45837;51.076;3.578;2022-12-29T13:57:02;21.00;56.10
59977;DHT22;45837;51.076;3.578;2022-12-29T14:04:58;21.20;56.40
59977;DHT22;45837;51.076;3.578;2022-12-29T14:07:24;20.60;56.20
59977;DHT22;45837;51.076;3.578;2022-12-29T14:09:50;21.20;56.70
59977;DHT22;45837;51.076;3.578;2022-12-29T14:14:47;21.30;56.90
59977;DHT22;45837;51.076;3.578;2022-12-29T14:17:17;21.30;57.10
59977;DHT22;45837;51.076;3.578;2022-12-29T14:19:45;21.30;57.00
59977;DHT22;45837;51.076;3.578;2022-12-29T14:22:11;21.30;57.30
59977;DHT22;45837;51.076;3.578;2022-12-29T14:34:46;21.00;57.00
59977;DHT22;45837;51.076;3.578;2022-12-29T14:37:28;21.30;57.30
59977;DHT22;45837;51.076;3.578;2022-12-29T14:42:39;21.30;57.20
59977;DHT22;45837;51.076;3.578;2022-12-29T14:45:06;21.30;57.30
59977;DHT22;45837;51.076;3.578;2022-12-29T14:47:37;22.20;57.70
59977;DHT22;45837;51.076;3.578;2022-12-29T14:52:49;21.60;57.40
59977;DHT22;45837;51.076;3.578;2022-12-29T14:57:43;21.30;57.60
59977;DHT22;45837;51.076;3.578;2022-12-29T15:02:39;21.40;57.40
59977;DHT22;45837;51.076;3.578;2022-12-29T15:05:10;21.30;57.50
59977;DHT22;45837;51.076;3.578;2022-12-29T15:07:45;21.20;57.50
59977;DHT22;45837;51.076;3.578;2022-12-29T15:10:13;21.20;57.60
59977;DHT22;45837;51.076;3.578;2022-12-29T15:12:41;20.40;57.30
59977;DHT22;45837;51.076;3.578;2022-12-29T15:15:20;21.30;57.70
59977;DHT22;45837;51.076;3.578;2022-12-29T15:17:46;21.30;57.70
59977;DHT22;45837;51.076;3.578;2022-12-29T15:25:55;21.30;58.00
59977;DHT22;45837;51.076;3.578;2022-12-29T15:28:22;21.20;58.10
59977;DHT22;45837;51.076;3.578;2022-12-29T15:30:55;21.20;58.10
59977;DHT22;45837;51.076;3.578;2022-12-29T15:33:22;21.30;58.10
59977;DHT22;45837;51.076;3.578;2022-12-29T15:35:52;21.30;58.10
59977;DHT22;45837;51.076;3.578;2022-12-29T15:38:27;21.30;57.80
59977;DHT22;45837;51.076;3.578;2022-12-29T15:40:54;20.50;57.50
59977;DHT22;45837;51.076;3.578;2022-12-29T15:45:59;21.30;57.80
59977;DHT22;45837;51.076;3.578;2022-12-29T15:48:26;21.30;57.90
59977;DHT22;45837;51.076;3.578;2022-12-29T15:50:52;21.60;58.20
59977;DHT22;45837;51.076;3.578;2022-12-29T15:53:19;21.30;58.10
59977;DHT22;45837;51.076;3.578;2022-12-29T15:55:50;21.30;58.00
59977;DHT22;45837;51.076;3.578;2022-12-29T15:58:21;21.30;57.90
59977;DHT22;45837;51.076;3.578;2022-12-29T16:00:49;21.30;57.90
59977;DHT22;45837;51.076;3.578;2022-12-29T16:03:15;21.20;57.80
59977;DHT22;45837;51.076;3.578;2022-12-29T16:05:42;22.00;58.20
59977;DHT22;45837;51.076;3.578;2022-12-29T16:11:00;21.60;58.30
59977;DHT22;45837;51.076;3.578;2022-12-29T16:13:34;21.20;57.70
59977;DHT22;45837;51.076;3.578;2022-12-29T16:16:07;21.00;57.20
59977;DHT22;45837;51.076;3.578;2022-12-29T16:18:35;21.30;56.60
59977;DHT22;45837;51.076;3.578;2022-12-29T16:21:02;20.90;56.40
59977;DHT22;45837;51.076;3.578;2022-12-29T16:23:30;21.10;56.40
59977;DHT22;45837;51.076;3.578;2022-12-29T16:25:56;21.10;56.20
59977;DHT22;45837;51.076;3.578;2022-12-29T16:28:23;21.20;56.00
59977;DHT22;45837;51.076;3.578;2022-12-29T16:30:59;21.20;55.90
59977;DHT22;45837;51.076;3.578;2022-12-29T16:33:46;21.10;56.00
59977;DHT22;45837;51.076;3.578;2022-12-29T16:36:23;21.20;55.70
59977;DHT22;45837;51.076;3.578;2022-12-29T16:38:49;21.20;55.40
59977;DHT22;45837;51.076;3.578;2022-12-29T16:41:28;21.20;55.50
59977;DHT22;45837;51.076;3.578;2022-12-29T16:44:16;21.20;55.20
59977;DHT22;45837;51.076;3.578;2022-12-29T16:49:33;21.30;58.30
59977;DHT22;45837;51.076;3.578;2022-12-29T16:51:59;21.20;59.30
59977;DHT22;45837;51.076;3.578;2022-12-29T16:54:31;21.40;60.30
59977;DHT22;45837;51.076;3.578;2022-12-29T16:56:57;21.40;60.10
59977;DHT22;45837;51.076;3.578;2022-12-29T16:59:26;21.40;60.50
59977;DHT22;45837;51.076;3.578;2022-12-29T17:01:55;21.50;60.40
59977;DHT22;45837;51.076;3.578;2022-12-29T17:04:21;21.50;60.50
59977;DHT22;45837;51.076;3.578;2022-12-29T17:06:47;21.50;60.70
59977;DHT22;45837;51.076;3.578;2022-12-29T17:09:20;21.50;61.00
59977;DHT22;45837;51.076;3.578;2022-12-29T17:11:47;21.50;61.20
59977;DHT22;45837;51.076;3.578;2022-12-29T17:16:46;20.90;59.90
59977;DHT22;45837;51.076;3.578;2022-12-29T17:19:15;21.50;59.80
59977;DHT22;45837;51.076;3.578;2022-12-29T17:21:42;21.50;60.00
59977;DHT22;45837;51.076;3.578;2022-12-29T17:24:17;21.40;60.00
59977;DHT22;45837;51.076;3.578;2022-12-29T17:26:44;21.40;60.00
59977;DHT22;45837;51.076;3.578;2022-12-29T17:29:15;21.40;59.80
59977;DHT22;45837;51.076;3.578;2022-12-29T17:31:42;21.40;58.00
59977;DHT22;45837;51.076;3.578;2022-12-29T17:34:10;21.30;56.00
59977;DHT22;45837;51.076;3.578;2022-12-29T17:36:36;21.30;54.40
59977;DHT22;45837;51.076;3.578;2022-12-29T17:39:02;21.30;54.00
59977;DHT22;45837;51.076;3.578;2022-12-29T17:41:27;21.20;54.30
59977;DHT22;45837;51.076;3.578;2022-12-29T17:43:53;21.10;55.20
59977;DHT22;45837;51.076;3.578;2022-12-29T17:46:19;21.20;55.90
59977;DHT22;45837;51.076;3.578;2022-12-29T17:48:45;21.20;56.00
59977;DHT22;45837;51.076;3.578;2022-12-29T17:51:11;21.10;56.80
59977;DHT22;45837;51.076;3.578;2022-12-29T17:53:37;21.10;56.60
59977;DHT22;45837;51.076;3.578;2022-12-29T17:56:04;21.10;56.70
59977;DHT22;45837;51.076;3.578;2022-12-29T17:58:33;21.10;56.40
59977;DHT22;45837;51.076;3.578;2022-12-29T18:01:01;21.00;56.50
59977;DHT22;45837;51.076;3.578;2022-12-29T18:05:53;21.00;56.50
59977;DHT22;45837;51.076;3.578;2022-12-29T18:08:19;21.00;56.60
59977;DHT22;45837;51.076;3.578;2022-12-29T18:10:45;21.00;56.80
59977;DHT22;45837;51.076;3.578;2022-12-29T18:13:18;20.90;56.90
59977;DHT22;45837;51.076;3.578;2022-12-29T18:15:44;20.90;56.70
59977;DHT22;45837;51.076;3.578;2022-12-29T18:18:12;21.30;57.20